createdAt,value
2023-02-07T00:00:23.270Z,104041.00
2023-02-07T00:02:51.014Z,104055.13
2023-02-07T00:05:18.496Z,104045.91
2023-02-07T00:07:46.025Z,104041.81
2023-02-07T00:10:13.509Z,104046.94
2023-02-07T00:12:40.894Z,104056.69
2023-02-07T00:15:08.597Z,104049.88
2023-02-07T00:17:35.987Z,104043.59
2023-02-07T00:20:03.389Z,104053.84
2023-02-07T00:22:30.948Z,104045.13
2023-02-07T00:24:58.403Z,104046.53
2023-02-07T00:27:25.875Z,104042.31
2023-02-07T00:29:53.275Z,104043.59
2023-02-07T00:32:20.661Z,104042.97
2023-02-07T00:34:50.524Z,104043.34
2023-02-07T00:37:17.951Z,104045.13
2023-02-07T00:39:45.387Z,104045.91
2023-02-07T00:42:12.769Z,104044.22
2023-02-07T00:44:40.243Z,104041.28
2023-02-07T00:47:07.677Z,104049.50
2023-02-07T00:49:35.110Z,104050.28
2023-02-07T00:52:02.556Z,104045.03
2023-02-07T00:54:29.950Z,104050.25
2023-02-07T00:56:57.349Z,104037.94
2023-02-07T00:59:24.830Z,104046.91
2023-02-07T01:01:52.337Z,104038.88
2023-02-07T01:04:19.823Z,104043.59
2023-02-07T01:06:48.240Z,104042.81
2023-02-07T01:09:15.620Z,104038.97
2023-02-07T01:11:43.004Z,104040.75
2023-02-07T01:14:11.021Z,104050.00
2023-02-07T01:16:38.582Z,104048.59
2023-02-07T01:19:09.942Z,104049.50
2023-02-07T01:21:37.570Z,104045.50
2023-02-07T01:24:05.087Z,104047.16
2023-02-07T01:26:32.502Z,104032.31
2023-02-07T01:28:59.923Z,104034.84
2023-02-07T01:31:27.443Z,104033.06
2023-02-07T01:33:56.335Z,104045.13
2023-02-07T01:36:24.176Z,104039.72
2023-02-07T01:38:52.623Z,104038.94
2023-02-07T01:41:20.113Z,104044.22
2023-02-07T01:43:54.507Z,104050.97
2023-02-07T01:46:22.181Z,104052.50
2023-02-07T01:48:50.071Z,104055.97
2023-02-07T01:51:17.706Z,104052.50
2023-02-07T01:53:45.153Z,104054.31
2023-02-07T01:56:29.479Z,104049.69
2023-02-07T01:58:58.633Z,104042.00
2023-02-07T02:01:27.151Z,104034.31
2023-02-07T02:03:55.913Z,104053.53
2023-02-07T02:06:24.980Z,104055.84
2023-02-07T02:08:56.035Z,104049.94
2023-02-07T02:11:26.559Z,104049.94
2023-02-07T02:13:59.110Z,104061.97
2023-02-07T02:16:26.560Z,104066.81
2023-02-07T02:19:06.720Z,104054.81
2023-02-07T02:21:53.212Z,104030.94
2023-02-07T02:24:20.669Z,104059.19
2023-02-07T02:26:50.883Z,104061.75
2023-02-07T02:29:35.486Z,104046.88
2023-02-07T02:32:06.062Z,104038.19
2023-02-07T02:34:36.904Z,104043.56
2023-02-07T02:37:23.014Z,104046.41
2023-02-07T02:39:50.390Z,104046.00
2023-02-07T02:42:27.379Z,104055.38
2023-02-07T02:44:59.280Z,104055.38
2023-02-07T02:47:29.139Z,104045.63
2023-02-07T02:49:57.386Z,104052.03
2023-02-07T02:52:31.439Z,104062.03
2023-02-07T02:55:08.347Z,104057.94
2023-02-07T02:58:00.149Z,104052.53
2023-02-07T03:03:40.841Z,104053.69
2023-02-07T03:06:20.658Z,104050.97
2023-02-07T03:09:06.331Z,104012.09
2023-02-07T03:11:39.822Z,104050.94
2023-02-07T03:14:07.277Z,104041.75
2023-02-07T03:16:39.873Z,104005.03
2023-02-07T03:19:10.475Z,104053.78
2023-02-07T03:21:39.856Z,104059.63
2023-02-07T03:24:14.880Z,104045.63
2023-02-07T03:26:44.133Z,104042.94
2023-02-07T03:29:12.965Z,104042.69
2023-02-07T03:31:42.445Z,104037.56
2023-02-07T03:34:12.181Z,104039.06
2023-02-07T03:36:43.499Z,104034.50
2023-02-07T03:39:10.993Z,104036.56
2023-02-07T03:41:42.360Z,104032.81
2023-02-07T03:44:11.644Z,104030.88
2023-02-07T03:46:39.723Z,104031.44
2023-02-07T03:49:07.793Z,104035.00
2023-02-07T03:51:36.393Z,104036.56
2023-02-07T03:54:03.814Z,104041.97
2023-02-07T03:56:31.203Z,104036.94
2023-02-07T03:58:58.571Z,104035.50
2023-02-07T04:01:26.022Z,104030.13
2023-02-07T04:03:53.459Z,104033.72
2023-02-07T04:06:20.930Z,104041.13
2023-02-07T04:08:48.415Z,104024.97
2023-02-07T04:11:15.874Z,104031.00
2023-02-07T04:13:43.261Z,104032.66
2023-02-07T04:16:10.636Z,104033.44
2023-02-07T04:18:38.021Z,104032.53
2023-02-07T04:21:06.763Z,104018.81
2023-02-07T04:23:34.378Z,104023.91
2023-02-07T04:26:01.893Z,104019.56
2023-02-07T04:28:29.879Z,104026.75
2023-02-07T04:30:57.401Z,104025.63
2023-02-07T04:33:24.816Z,104028.94
2023-02-07T04:35:59.243Z,104038.91
2023-02-07T04:38:27.216Z,104024.41
2023-02-07T04:40:58.769Z,104030.72
2023-02-07T04:43:26.228Z,104032.50
2023-02-07T04:45:53.653Z,104022.69
2023-02-07T04:48:21.129Z,104023.25
2023-02-07T04:50:49.126Z,104027.13
2023-02-07T04:53:16.915Z,104024.06
2023-02-07T04:55:44.365Z,104030.59
2023-02-07T04:58:11.796Z,104025.69
2023-02-07T05:00:39.192Z,104034.13
2023-02-07T05:03:06.677Z,104036.06
2023-02-07T05:05:34.067Z,104028.38
2023-02-07T05:08:01.551Z,104031.22
2023-02-07T05:10:29.188Z,104016.88
2023-02-07T05:12:56.594Z,104016.38
2023-02-07T05:15:23.987Z,104025.88
2023-02-07T05:17:52.323Z,104033.50
2023-02-07T05:20:20.263Z,104036.69
2023-02-07T05:22:47.768Z,104030.00
2023-02-07T05:25:15.223Z,104029.63
2023-02-07T05:27:42.587Z,104035.25
2023-02-07T05:30:10.399Z,104030.91
2023-02-07T05:32:55.445Z,104042.03
2023-02-07T05:35:22.891Z,104050.59
2023-02-07T05:37:50.307Z,104045.63
2023-02-07T05:40:17.727Z,104043.94
2023-02-07T05:42:45.171Z,104040.66
2023-02-07T05:45:12.785Z,104038.34
2023-02-07T05:47:40.444Z,104044.38
2023-02-07T05:50:08.321Z,104040.91
2023-02-07T05:52:35.962Z,104036.41
2023-02-07T05:55:03.460Z,104047.28
2023-02-07T05:57:31.383Z,104042.50
2023-02-07T05:59:58.828Z,104050.47
2023-02-07T06:02:26.308Z,104043.22
2023-02-07T06:04:53.712Z,104044.22
2023-02-07T06:07:21.088Z,104040.69
2023-02-07T06:09:48.471Z,104043.47
2023-02-07T06:12:15.903Z,104035.56
2023-02-07T06:14:43.278Z,104044.03
2023-02-07T06:17:10.991Z,104039.59
2023-02-07T06:19:38.394Z,104047.75
2023-02-07T06:22:05.781Z,104048.41
2023-02-07T06:24:33.207Z,104047.97
2023-02-07T06:27:00.611Z,104045.34
2023-02-07T06:29:28.067Z,104042.53
2023-02-07T06:31:55.533Z,104049.72
2023-02-07T06:34:23.015Z,104052.47
2023-02-07T06:36:50.462Z,104047.97
2023-02-07T06:39:17.855Z,104044.59
2023-02-07T06:41:45.296Z,104049.09
2023-02-07T06:44:12.844Z,104048.03
2023-02-07T06:46:40.320Z,104041.25
2023-02-07T06:49:08.794Z,104048.59
2023-02-07T06:51:36.263Z,104050.34
2023-02-07T06:54:08.170Z,104053.03
2023-02-07T06:56:35.558Z,104061.19
2023-02-07T06:59:02.958Z,104064.25
2023-02-07T07:01:30.442Z,104063.88
2023-02-07T07:03:58.020Z,104066.44
2023-02-07T07:06:25.574Z,104075.28
2023-02-07T07:08:52.967Z,104076.31
2023-02-07T07:11:20.597Z,104068.38
2023-02-07T07:13:48.305Z,104061.44
2023-02-07T07:16:15.820Z,104070.09
2023-02-07T07:18:43.704Z,104065.13
2023-02-07T07:21:11.136Z,104065.41
2023-02-07T07:23:38.613Z,104072.66
2023-02-07T07:26:06.235Z,104070.53
2023-02-07T07:28:33.778Z,104061.19
2023-02-07T07:31:08.275Z,104066.56
2023-02-07T07:33:36.223Z,104070.22
2023-02-07T07:36:04.665Z,104069.91
2023-02-07T07:38:32.645Z,104074.25
2023-02-07T07:41:00.393Z,104073.75
2023-02-07T07:43:27.922Z,104069.91
2023-02-07T07:46:00.042Z,104074.25
2023-02-07T07:48:27.552Z,104076.25
2023-02-07T07:50:55.205Z,104071.78
2023-02-07T07:53:22.581Z,104079.84
2023-02-07T07:55:52.738Z,104074.09
2023-02-07T07:58:20.170Z,104074.66
2023-02-07T08:00:48.714Z,104078.47
2023-02-07T08:03:17.059Z,104084.56
2023-02-07T08:05:44.818Z,104090.59
2023-02-07T08:08:12.662Z,104093.28
2023-02-07T08:10:40.679Z,104081.25
2023-02-07T08:13:08.396Z,104084.22
2023-02-07T08:15:35.878Z,104086.50
2023-02-07T08:18:03.329Z,104079.88
2023-02-07T08:20:30.823Z,104092.59
2023-02-07T08:22:59.025Z,104082.34
2023-02-07T08:25:26.792Z,104077.78
2023-02-07T08:27:54.426Z,104071.69
2023-02-07T08:30:22.504Z,104091.53
2023-02-07T08:32:51.708Z,104090.63
2023-02-07T08:35:19.525Z,104092.13
2023-02-07T08:37:46.996Z,104097.00
2023-02-07T08:40:15.122Z,104100.59
2023-02-07T08:42:42.645Z,104103.09
2023-02-07T08:45:10.551Z,104098.78
2023-02-07T08:47:38.259Z,104090.59
2023-02-07T08:50:06.869Z,104096.78
2023-02-07T08:52:34.352Z,104103.34
2023-02-07T08:55:01.786Z,104097.00
2023-02-07T08:57:29.225Z,104097.13
2023-02-07T08:59:56.727Z,104096.84
2023-02-07T09:02:24.250Z,104088.88
2023-02-07T09:04:51.882Z,104096.63
2023-02-07T09:07:20.123Z,104096.41
2023-02-07T09:09:47.828Z,104094.34
2023-02-07T09:12:15.264Z,104091.28
2023-02-07T09:14:42.691Z,104099.09
2023-02-07T09:17:10.256Z,104096.25
2023-02-07T09:19:37.694Z,104102.03
2023-02-07T09:22:06.261Z,104095.84
2023-02-07T09:24:33.761Z,104089.25
2023-02-07T09:27:02.234Z,104086.94
2023-02-07T09:29:29.807Z,104083.13
2023-02-07T09:31:57.365Z,104078.09
2023-02-07T09:34:25.096Z,104078.75
2023-02-07T09:36:52.546Z,104076.69
2023-02-07T09:39:20.245Z,104084.50
2023-02-07T09:42:04.553Z,104076.41
2023-02-07T09:44:47.830Z,104076.63
2023-02-07T09:47:18.964Z,104079.41
2023-02-07T09:50:04.976Z,104080.91
2023-02-07T09:52:42.259Z,104080.09
2023-02-07T09:55:19.051Z,104065.19
2023-02-07T09:57:48.488Z,104063.81
2023-02-07T10:00:25.162Z,104066.56
2023-02-07T10:03:01.785Z,104075.69
2023-02-07T10:05:34.273Z,104071.19
2023-02-07T10:08:01.851Z,104074.44
2023-02-07T10:10:32.389Z,104073.25
2023-02-07T10:13:12.051Z,104080.66
2023-02-07T10:15:45.039Z,104077.63
2023-02-07T10:18:30.995Z,104087.81
2023-02-07T10:21:19.849Z,104081.94
2023-02-07T10:24:05.741Z,104085.19
2023-02-07T10:26:51.997Z,104086.31
2023-02-07T10:29:25.615Z,104095.41
2023-02-07T10:31:54.678Z,104084.75
2023-02-07T10:34:26.356Z,104082.25
2023-02-07T10:36:54.478Z,104086.97
2023-02-07T10:39:42.863Z,104076.38
2023-02-07T10:42:15.052Z,104075.75
2023-02-07T10:44:42.824Z,104081.94
2023-02-07T10:47:14.426Z,104079.66
2023-02-07T10:49:42.081Z,104076.50
2023-02-07T10:52:27.717Z,104073.88
2023-02-07T10:54:59.288Z,104077.81
2023-02-07T10:57:29.478Z,104074.47
2023-02-07T11:00:01.614Z,104072.28
2023-02-07T11:02:29.314Z,104082.28
2023-02-07T11:04:57.510Z,104071.47
2023-02-07T11:07:25.398Z,104073.97
2023-02-07T11:09:52.894Z,104067.69
2023-02-07T11:12:21.899Z,104065.72
2023-02-07T11:15:02.939Z,104069.69
2023-02-07T11:17:31.031Z,104072.28
2023-02-07T11:20:03.227Z,104066.94
2023-02-07T11:22:30.746Z,104067.03
2023-02-07T11:25:02.946Z,104056.09
2023-02-07T11:27:35.532Z,104057.28
2023-02-07T11:30:08.007Z,104053.75
2023-02-07T11:32:36.443Z,104055.59
2023-02-07T11:35:09.362Z,104055.19
2023-02-07T11:37:42.043Z,104057.69
2023-02-07T11:40:24.579Z,104059.38
2023-02-07T11:42:58.532Z,104060.53
2023-02-07T11:45:26.911Z,104046.22
2023-02-07T11:47:56.458Z,104041.75
2023-02-07T11:50:32.966Z,104042.25
2023-02-07T11:53:01.453Z,104042.84
2023-02-07T11:55:35.098Z,104034.13
2023-02-07T11:58:10.079Z,104032.88
2023-02-07T12:00:38.703Z,104020.88
2023-02-07T12:03:18.366Z,104025.56
2023-02-07T12:05:50.192Z,104016.03
2023-02-07T12:08:19.515Z,104017.78
2023-02-07T12:10:49.303Z,104014.50
2023-02-07T12:13:25.351Z,104010.91
2023-02-07T12:15:56.087Z,104016.34
2023-02-07T12:18:32.885Z,104010.59
2023-02-07T12:21:06.460Z,104011.06
2023-02-07T12:23:42.829Z,104012.69
2023-02-07T12:26:25.590Z,104010.22
2023-02-07T12:29:12.371Z,104013.28
2023-02-07T12:31:41.042Z,104018.44
2023-02-07T12:34:15.766Z,104014.31
2023-02-07T12:36:49.716Z,104015.59
2023-02-07T12:39:17.143Z,104015.31
2023-02-07T12:41:45.595Z,104014.47
2023-02-07T12:44:19.170Z,104017.81
2023-02-07T12:46:49.707Z,104018.91
2023-02-07T12:49:35.820Z,104016.00
2023-02-07T12:52:21.904Z,104010.44
2023-02-07T12:54:55.177Z,104011.44
2023-02-07T12:57:22.758Z,104012.75
2023-02-07T12:59:53.040Z,104004.00
2023-02-07T13:02:29.537Z,104005.25
2023-02-07T13:04:57.193Z,103991.69
2023-02-07T13:07:43.580Z,103989.88
2023-02-07T13:10:19.209Z,103987.69
2023-02-07T13:13:09.968Z,103993.91
2023-02-07T13:15:55.477Z,103988.41
2023-02-07T13:18:27.116Z,103989.22
2023-02-07T13:21:16.497Z,103979.91
2023-02-07T13:23:46.954Z,103984.19
2023-02-07T13:26:22.100Z,103982.22
2023-02-07T13:28:56.192Z,103978.75
2023-02-07T13:31:26.085Z,103967.94
2023-02-07T13:33:54.403Z,103966.28
2023-02-07T13:36:39.733Z,103965.06
2023-02-07T13:39:27.624Z,103972.66
2023-02-07T13:41:55.045Z,103973.41
2023-02-07T13:44:38.365Z,103971.34
2023-02-07T13:47:24.408Z,103970.53
2023-02-07T13:49:56.276Z,103966.38
2023-02-07T13:52:23.683Z,103957.13
2023-02-07T13:54:51.160Z,103960.91
2023-02-07T13:57:45.995Z,103958.06
2023-02-07T14:00:13.478Z,103953.53
2023-02-07T14:02:43.093Z,103961.47
2023-02-07T14:05:21.180Z,103962.19
2023-02-07T14:08:05.048Z,103959.56
2023-02-07T14:10:47.713Z,103961.31
2023-02-07T14:13:38.197Z,103963.47
2023-02-07T14:16:07.562Z,103961.06
2023-02-07T14:18:38.684Z,103957.66
2023-02-07T14:21:07.343Z,103962.16
2023-02-07T14:23:53.066Z,103959.75
2023-02-07T14:26:38.960Z,103978.53
2023-02-07T14:29:22.697Z,103973.44
2023-02-07T14:31:50.193Z,103974.72
2023-02-07T14:34:21.769Z,103963.28
2023-02-07T14:36:49.554Z,103959.91
2023-02-07T14:39:20.155Z,103970.50
2023-02-07T14:41:49.094Z,103957.66
2023-02-07T14:44:22.616Z,103962.66
2023-02-07T14:46:51.761Z,103958.69
2023-02-07T14:49:34.312Z,103958.00
2023-02-07T14:52:08.124Z,103961.78
2023-02-07T14:54:44.017Z,103953.31
2023-02-07T14:57:11.450Z,103953.94
2023-02-07T14:59:41.371Z,103945.69
2023-02-07T15:02:27.374Z,103936.84
2023-02-07T15:04:54.847Z,103943.91
2023-02-07T15:07:22.282Z,103945.59
2023-02-07T15:09:49.745Z,103950.06
2023-02-07T15:12:27.359Z,103952.84
2023-02-07T15:14:57.019Z,103951.97
2023-02-07T15:17:33.413Z,103946.47
2023-02-07T15:20:07.084Z,103943.69
2023-02-07T15:22:34.568Z,103951.44
2023-02-07T15:25:02.118Z,103939.34
2023-02-07T15:27:30.278Z,103941.72
2023-02-07T15:29:59.954Z,103944.78
2023-02-07T15:32:33.134Z,103950.84
2023-02-07T15:35:12.961Z,103950.53
2023-02-07T15:37:40.427Z,103956.00
2023-02-07T15:40:08.169Z,103953.22
2023-02-07T15:42:35.644Z,103953.44
2023-02-07T15:45:05.284Z,103948.31
2023-02-07T15:47:37.416Z,103950.22
2023-02-07T15:50:20.985Z,103952.13
2023-02-07T15:52:52.943Z,103953.53
2023-02-07T15:55:42.775Z,103954.31
2023-02-07T15:58:18.534Z,103960.44
2023-02-07T16:00:46.106Z,103965.88
2023-02-07T16:03:25.575Z,103958.38
2023-02-07T16:06:02.246Z,103954.25
2023-02-07T16:08:32.476Z,103952.03
2023-02-07T16:11:20.217Z,103954.75
2023-02-07T16:13:53.229Z,103957.91
2023-02-07T16:16:27.853Z,103948.97
2023-02-07T16:19:13.984Z,103954.34
2023-02-07T16:21:42.465Z,103914.56
2023-02-07T16:24:14.864Z,103959.75
2023-02-07T16:26:43.040Z,103965.16
2023-02-07T16:29:16.286Z,103965.84
2023-02-07T16:31:44.478Z,103975.34
2023-02-07T16:34:13.780Z,103963.59
2023-02-07T16:36:41.320Z,103972.69
2023-02-07T16:39:08.724Z,103971.69
2023-02-07T16:41:39.231Z,103973.78
2023-02-07T16:44:10.669Z,103973.94
2023-02-07T16:46:38.553Z,103982.31
2023-02-07T16:49:19.205Z,103979.50
2023-02-07T16:51:46.704Z,103980.84
2023-02-07T16:54:14.717Z,103982.44
2023-02-07T16:56:43.522Z,103980.84
2023-02-07T16:59:15.364Z,103983.16
2023-02-07T17:01:42.795Z,103986.28
2023-02-07T17:04:11.893Z,103984.59
2023-02-07T17:06:40.631Z,103988.28
2023-02-07T17:09:18.667Z,103981.09
2023-02-07T17:11:46.982Z,103985.47
2023-02-07T17:14:14.616Z,103989.56
2023-02-07T17:16:42.211Z,103985.34
2023-02-07T17:19:18.261Z,103990.59
2023-02-07T17:21:46.627Z,103979.59
2023-02-07T17:24:14.426Z,103985.81
2023-02-07T17:26:43.782Z,103985.13
2023-02-07T17:29:12.415Z,103987.78
2023-02-07T17:31:40.011Z,103978.53
2023-02-07T17:34:07.647Z,103982.56
2023-02-07T17:36:35.142Z,103985.00
2023-02-07T17:39:02.868Z,103985.28
2023-02-07T17:41:31.473Z,103988.94
2023-02-07T17:43:58.978Z,103983.69
2023-02-07T17:46:28.020Z,103990.00
2023-02-07T17:48:56.061Z,103994.44
2023-02-07T17:51:24.960Z,103991.16
2023-02-07T17:53:52.837Z,104001.16
2023-02-07T17:56:28.198Z,104002.47
2023-02-07T17:58:56.485Z,104000.44
2023-02-07T18:01:24.028Z,104009.44
2023-02-07T18:03:52.916Z,104011.50
2023-02-07T18:06:21.107Z,104003.91
2023-02-07T18:08:48.744Z,104006.63
2023-02-07T18:11:16.241Z,104016.88
2023-02-07T18:13:44.458Z,104010.06
2023-02-07T18:16:14.442Z,104013.06
2023-02-07T18:18:41.903Z,104012.78
2023-02-07T18:21:09.804Z,104013.44
2023-02-07T18:23:38.075Z,104008.31
2023-02-07T18:26:05.564Z,104012.53
2023-02-07T18:28:33.111Z,104008.84
2023-02-07T18:31:00.614Z,104010.22
2023-02-07T18:33:28.604Z,104005.34
2023-02-07T18:35:59.088Z,104016.13
2023-02-07T18:38:26.594Z,104010.88
2023-02-07T18:40:54.035Z,104010.50
2023-02-07T18:43:21.405Z,104005.13
2023-02-07T18:45:48.928Z,104001.28
2023-02-07T18:48:16.343Z,104006.41
2023-02-07T18:50:45.291Z,104015.75
2023-02-07T18:53:13.081Z,104004.72
2023-02-07T18:55:40.563Z,104006.16
2023-02-07T18:58:07.993Z,103998.19
2023-02-07T19:00:35.432Z,104002.94
2023-02-07T19:03:02.887Z,103999.09
2023-02-07T19:05:30.334Z,103995.78
2023-02-07T19:07:58.924Z,104005.38
2023-02-07T19:10:26.319Z,103992.06
2023-02-07T19:12:53.771Z,103999.88
2023-02-07T19:15:22.055Z,104001.28
2023-02-07T19:17:49.681Z,103998.84
2023-02-07T19:20:17.066Z,104001.00
2023-02-07T19:22:45.149Z,103999.47
2023-02-07T19:25:13.247Z,103993.84
2023-02-07T19:27:40.662Z,103997.66
2023-02-07T19:30:08.411Z,104001.28
2023-02-07T19:32:35.883Z,103988.19
2023-02-07T19:35:03.386Z,103992.41
2023-02-07T19:37:30.773Z,103993.81
2023-02-07T19:39:58.196Z,103990.47
2023-02-07T19:42:25.770Z,103992.81
2023-02-07T19:44:53.288Z,103991.50
2023-02-07T19:47:20.724Z,103991.50
2023-02-07T19:49:51.628Z,103994.09
2023-02-07T19:52:20.012Z,103991.53
2023-02-07T19:54:47.658Z,103989.22
2023-02-07T19:57:15.172Z,103998.06
2023-02-07T19:59:42.678Z,103995.88
2023-02-07T20:02:11.131Z,103992.28
2023-02-07T20:04:39.093Z,103999.97
2023-02-07T20:07:06.580Z,103993.81
2023-02-07T20:09:34.151Z,103995.72
2023-02-07T20:12:01.589Z,103998.81
2023-02-07T20:14:29.218Z,103987.78
2023-02-07T20:16:56.602Z,103986.00
2023-02-07T20:19:23.992Z,103993.06
2023-02-07T20:21:51.424Z,103986.38
2023-02-07T20:24:19.474Z,103995.13
2023-02-07T20:26:46.959Z,103929.44
2023-02-07T20:29:15.499Z,103987.69
2023-02-07T20:31:43.655Z,103984.34
2023-02-07T20:34:11.142Z,103977.41
2023-02-07T20:36:41.227Z,103988.41
2023-02-07T20:39:11.807Z,103984.72
2023-02-07T20:41:41.550Z,103988.41
2023-02-07T20:44:12.415Z,103978.94
2023-02-07T20:46:40.887Z,103971.25
2023-02-07T20:49:09.747Z,103980.47
2023-02-07T20:51:37.960Z,103983.66
2023-02-07T20:54:06.453Z,103980.97
2023-02-07T20:56:34.228Z,103979.81
2023-02-07T20:59:01.776Z,103981.44
2023-02-07T21:01:30.901Z,103975.81
2023-02-07T21:03:59.487Z,103977.06
2023-02-07T21:06:27.513Z,103981.16
2023-02-07T21:09:00.470Z,103983.44
2023-02-07T21:11:31.137Z,103986.50
2023-02-07T21:13:58.516Z,103991.63
2023-02-07T21:16:26.001Z,103984.72
2023-02-07T21:18:53.599Z,103985.44
2023-02-07T21:21:21.160Z,103986.44
2023-02-07T21:23:48.636Z,103987.97
2023-02-07T21:26:16.494Z,103981.38
2023-02-07T21:28:44.557Z,103982.56
2023-02-07T21:31:12.031Z,103974.75
2023-02-07T21:33:39.560Z,103979.88
2023-02-07T21:36:09.843Z,103987.69
2023-02-07T21:38:37.544Z,103976.91
2023-02-07T21:41:11.755Z,103983.28
2023-02-07T21:43:40.208Z,103984.81
2023-02-07T21:46:08.986Z,103982.50
2023-02-07T21:48:37.025Z,103976.38
2023-02-07T21:51:05.761Z,103975.31
2023-02-07T21:53:33.216Z,103976.09
2023-02-07T21:56:01.673Z,103966.84
2023-02-07T21:58:29.207Z,103972.16
2023-02-07T22:00:57.040Z,103969.09
2023-02-07T22:03:24.508Z,103967.13
2023-02-07T22:05:53.402Z,103974.94
2023-02-07T22:08:20.781Z,103975.03
2023-02-07T22:10:48.202Z,103973.97
2023-02-07T22:13:15.645Z,103974.91
2023-02-07T22:15:47.953Z,103971.72
2023-02-07T22:18:15.664Z,103980.00
2023-02-07T22:20:43.513Z,103969.50
2023-02-07T22:23:10.991Z,103975.53
2023-02-07T22:25:41.995Z,103974.53
2023-02-07T22:28:10.150Z,103971.97
2023-02-07T22:30:39.775Z,103969.63
2023-02-07T22:33:09.147Z,103965.00
2023-02-07T22:35:39.497Z,103966.38
2023-02-07T22:38:07.122Z,103964.59
2023-02-07T22:40:35.475Z,103978.66
2023-02-07T22:43:03.440Z,103960.91
2023-02-07T22:45:30.972Z,103972.06
2023-02-07T22:47:58.401Z,103962.69
2023-02-07T22:50:25.920Z,103960.38
2023-02-07T22:52:53.345Z,103959.13
2023-02-07T22:55:20.798Z,103951.38
2023-02-07T22:57:52.102Z,103955.16
2023-02-07T23:00:20.482Z,103960.47
2023-02-07T23:02:47.977Z,103962.00
2023-02-07T23:05:15.418Z,103948.31
2023-02-07T23:07:44.216Z,103952.03
2023-02-07T23:10:11.863Z,103952.66
2023-02-07T23:12:39.320Z,103953.88
2023-02-07T23:15:07.551Z,103955.66
2023-02-07T23:17:34.964Z,103951.03
2023-02-07T23:20:02.392Z,103955.38
2023-02-07T23:22:29.788Z,103948.75
2023-02-07T23:24:57.239Z,103954.41
2023-02-07T23:27:24.699Z,103957.91
2023-02-07T23:29:52.182Z,103956.63
2023-02-07T23:32:19.665Z,103963.81
2023-02-07T23:34:47.169Z,103969.69
2023-02-07T23:37:14.607Z,103970.41
2023-02-07T23:39:42.039Z,103974.34
2023-02-07T23:42:10.523Z,103972.56
2023-02-07T23:44:38.534Z,103975.53
2023-02-07T23:47:06.320Z,103970.63
2023-02-07T23:49:33.779Z,103976.16
2023-02-07T23:52:01.232Z,103970.06
2023-02-07T23:54:28.627Z,103974.13
2023-02-07T23:56:56.049Z,103970.72
2023-02-07T23:59:23.486Z,103965.31
